createdAt,value
2023-05-18T00:00:56.002Z,93803.72
2023-05-18T00:06:07.786Z,93796.75
2023-05-18T00:11:15.064Z,93803.23
2023-05-18T00:16:22.324Z,93802.69
2023-05-18T00:21:30.969Z,93798.38
2023-05-18T00:26:39.481Z,93795.77
2023-05-18T00:31:46.742Z,93795.72
2023-05-18T00:36:53.759Z,93800.84
2023-05-18T00:42:00.782Z,93797.31
2023-05-18T00:47:08.288Z,93798.20
2023-05-18T00:52:15.366Z,93791.06
2023-05-18T00:57:22.416Z,93793.40
2023-05-18T01:02:30.768Z,93793.14
2023-05-18T01:07:39.917Z,93788.45
2023-05-18T01:12:56.781Z,93790.76
2023-05-18T01:18:29.626Z,93791.77
2023-05-18T01:23:53.113Z,93783.92
2023-05-18T01:29:04.279Z,93788.55
2023-05-18T01:34:11.315Z,93785.22
2023-05-18T01:39:18.437Z,93786.03
2023-05-18T01:44:33.536Z,93789.13
2023-05-18T01:50:06.077Z,93788.72
2023-05-18T01:55:13.882Z,93787.06
2023-05-18T02:00:22.637Z,93784.86
2023-05-18T02:05:29.876Z,93782.61
2023-05-18T02:10:37.129Z,93782.87
2023-05-18T02:15:45.300Z,93780.83
2023-05-18T02:20:52.821Z,93789.48
2023-05-18T02:26:00.137Z,93784.46
2023-05-18T02:31:13.486Z,93791.88
2023-05-18T02:36:22.074Z,93793.02
2023-05-18T02:41:29.391Z,93792.70
2023-05-18T02:46:36.419Z,93790.98
2023-05-18T02:51:43.806Z,93786.66
2023-05-18T02:56:50.840Z,93787.23
2023-05-18T03:01:58.076Z,93786.55
2023-05-18T03:07:04.970Z,93789.15
2023-05-18T03:12:12.064Z,93793.46
2023-05-18T03:17:19.176Z,93792.55
2023-05-18T03:22:25.920Z,93791.29
2023-05-18T03:27:32.765Z,93793.38
2023-05-18T03:32:39.538Z,93798.39
2023-05-18T03:37:46.496Z,93796.02
2023-05-18T03:42:53.238Z,93797.20
2023-05-18T03:48:00.048Z,93796.80
2023-05-18T03:53:10.031Z,93797.03
2023-05-18T03:58:17.463Z,93790.64
2023-05-18T04:03:25.890Z,93792.53
2023-05-18T04:08:34.363Z,93794.85
2023-05-18T04:13:42.379Z,93804.22
2023-05-18T04:18:49.592Z,93806.89
2023-05-18T04:23:59.811Z,93811.40
2023-05-18T04:29:07.964Z,93810.27
2023-05-18T04:34:16.440Z,93813.91
2023-05-18T04:39:25.415Z,93817.75
2023-05-18T04:44:36.904Z,93817.20
2023-05-18T04:49:44.009Z,93818.11
2023-05-18T04:54:51.333Z,93827.05
2023-05-18T04:59:58.701Z,93820.97
2023-05-18T05:05:07.159Z,93818.92
2023-05-18T05:10:14.033Z,93822.84
2023-05-18T05:15:21.542Z,93826.73
2023-05-18T05:20:28.368Z,93821.91
2023-05-18T05:25:35.529Z,93822.84
2023-05-18T05:30:42.556Z,93826.76
2023-05-18T05:35:49.650Z,93825.74
2023-05-18T05:40:56.645Z,93826.62
2023-05-18T05:46:03.632Z,93831.77
2023-05-18T05:51:10.363Z,93831.59
2023-05-18T05:56:17.464Z,93831.04
2023-05-18T06:01:24.321Z,93829.92
2023-05-18T06:06:31.877Z,93833.59
2023-05-18T06:11:38.786Z,93849.91
2023-05-18T06:16:45.876Z,93841.72
2023-05-18T06:21:52.899Z,93842.41
2023-05-18T06:27:00.114Z,93846.03
2023-05-18T06:32:07.843Z,93842.75
2023-05-18T06:37:14.796Z,93850.86
2023-05-18T06:42:21.611Z,93854.21
2023-05-18T06:47:28.568Z,93860.09
2023-05-18T06:52:38.400Z,93858.11
2023-05-18T06:57:45.160Z,93860.52
2023-05-18T07:02:52.271Z,93860.52
2023-05-18T07:08:00.046Z,93865.02
2023-05-18T07:13:06.921Z,93864.47
2023-05-18T07:18:14.088Z,93865.23
2023-05-18T07:23:33.971Z,93861.72
2023-05-18T07:28:42.707Z,93864.77
2023-05-18T07:33:50.341Z,93867.79
2023-05-18T07:38:57.714Z,93879.23
2023-05-18T07:44:05.092Z,93864.11
2023-05-18T07:49:11.953Z,93865.69
2023-05-18T07:54:19.568Z,93867.23
2023-05-18T07:59:27.052Z,93866.56
2023-05-18T08:04:34.281Z,93863.88
2023-05-18T08:09:42.146Z,93866.61
2023-05-18T08:14:49.141Z,93863.16
2023-05-18T08:19:57.440Z,93857.16
2023-05-18T08:25:05.984Z,93861.19
2023-05-18T08:30:14.161Z,93862.87
2023-05-18T08:35:22.267Z,93866.41
2023-05-18T08:40:33.581Z,93856.48
2023-05-18T08:46:20.085Z,93850.63
2023-05-18T08:51:30.565Z,93859.46
2023-05-18T08:56:39.151Z,93867.77
2023-05-18T09:01:46.302Z,93861.24
2023-05-18T09:06:57.190Z,93859.99
2023-05-18T09:12:05.477Z,93864.29
2023-05-18T09:17:12.941Z,93867.19
2023-05-18T09:22:20.179Z,93866.00
2023-05-18T09:27:27.590Z,93856.27
2023-05-18T09:32:39.987Z,93853.03
2023-05-18T09:37:48.160Z,93856.68
2023-05-18T09:42:56.413Z,93851.03
2023-05-18T09:48:03.411Z,93851.71
2023-05-18T09:53:12.392Z,93852.13
2023-05-18T09:58:20.340Z,93855.88
2023-05-18T10:03:27.968Z,93851.45
2023-05-18T10:08:36.367Z,93844.72
2023-05-18T10:13:47.431Z,93840.73
2023-05-18T10:18:57.010Z,93842.16
2023-05-18T10:24:06.396Z,93842.91
2023-05-18T10:29:14.051Z,93840.16
2023-05-18T10:34:23.321Z,93839.14
2023-05-18T10:39:31.068Z,93843.68
2023-05-18T10:44:39.782Z,93838.93
2023-05-18T10:49:49.122Z,93843.68
2023-05-18T10:54:57.311Z,93847.75
2023-05-18T11:00:08.318Z,93838.62
2023-05-18T11:05:15.400Z,93836.32
2023-05-18T11:10:22.765Z,93836.48
2023-05-18T11:15:59.907Z,93840.27
2023-05-18T11:21:28.383Z,93836.71
2023-05-18T11:26:41.585Z,93829.81
2023-05-18T11:31:54.813Z,93832.09
2023-05-18T11:37:01.893Z,93837.95
2023-05-18T11:42:17.780Z,93846.67
2023-05-18T11:47:29.693Z,93848.59
2023-05-18T11:52:47.703Z,93846.95
2023-05-18T11:57:55.311Z,93845.21
2023-05-18T12:03:04.591Z,93839.63
2023-05-18T12:08:13.719Z,93837.66
2023-05-18T12:13:20.640Z,93846.98
2023-05-18T12:18:30.466Z,93853.08
2023-05-18T12:23:41.209Z,93854.36
2023-05-18T12:28:49.050Z,93849.01
2023-05-18T12:33:59.475Z,93849.09
2023-05-18T12:39:07.527Z,93853.75
2023-05-18T12:44:14.737Z,93847.16
2023-05-18T12:49:22.329Z,93843.37
2023-05-18T12:54:33.252Z,93847.38
2023-05-18T12:59:44.747Z,93850.09
2023-05-18T13:05:09.019Z,93856.33
2023-05-18T13:10:20.820Z,93852.43
2023-05-18T13:15:27.808Z,93857.41
2023-05-18T13:20:39.039Z,93863.48
2023-05-18T13:25:47.238Z,93869.16
2023-05-18T13:30:54.420Z,93865.11
2023-05-18T13:36:03.131Z,93868.02
2023-05-18T13:41:12.929Z,93862.48
2023-05-18T13:46:20.662Z,93856.72
2023-05-18T13:51:27.742Z,93854.94
2023-05-18T13:56:35.032Z,93860.58
2023-05-18T14:01:42.809Z,93858.89
2023-05-18T14:06:51.956Z,93863.63
2023-05-18T14:12:00.443Z,93865.06
2023-05-18T14:17:09.253Z,93870.11
2023-05-18T14:22:16.788Z,93864.33
2023-05-18T14:27:24.069Z,93861.64
2023-05-18T14:32:31.734Z,93868.55
2023-05-18T14:37:39.884Z,93863.67
2023-05-18T14:42:46.698Z,93865.42
2023-05-18T14:47:53.540Z,93868.00
2023-05-18T14:53:00.771Z,93869.80
2023-05-18T14:58:10.986Z,93865.19
2023-05-18T15:03:18.043Z,93867.25
2023-05-18T15:08:25.133Z,93866.88
2023-05-18T15:13:33.147Z,93874.84
2023-05-18T15:18:41.321Z,93720.64
2023-05-18T15:23:49.185Z,93868.22
2023-05-18T15:28:56.816Z,93875.89
2023-05-18T15:34:03.615Z,93880.89
2023-05-18T15:39:10.742Z,93876.80
2023-05-18T15:44:17.881Z,93882.84
2023-05-18T15:49:25.924Z,93878.67
2023-05-18T15:54:33.065Z,93880.16
2023-05-18T15:59:40.499Z,93884.05
2023-05-18T16:04:47.664Z,93876.12
2023-05-18T16:09:54.707Z,93877.28
2023-05-18T16:15:01.868Z,93887.72
2023-05-18T16:20:10.369Z,93881.34
2023-05-18T16:25:19.023Z,93896.96
2023-05-18T16:30:26.362Z,93893.05
2023-05-18T16:35:33.338Z,93895.13
2023-05-18T16:40:40.515Z,93894.75
2023-05-18T16:45:47.883Z,93899.45
2023-05-18T16:50:54.636Z,93902.97
2023-05-18T16:56:03.319Z,93910.95
2023-05-18T17:01:26.215Z,93918.16
2023-05-18T17:06:20.457Z,93919.86
2023-05-18T17:11:28.350Z,93927.88
2023-05-18T17:16:36.714Z,93920.56
2023-05-18T17:21:43.842Z,93924.56
2023-05-18T17:26:51.274Z,93928.59
2023-05-18T17:31:58.724Z,93930.70
2023-05-18T17:37:05.883Z,93948.22
2023-05-18T17:42:12.750Z,93940.30
2023-05-18T17:47:22.180Z,93944.83
2023-05-18T17:52:29.208Z,93936.02
2023-05-18T17:57:36.103Z,93943.58
2023-05-18T18:02:43.025Z,93938.25
2023-05-18T18:07:50.092Z,93946.02
2023-05-18T18:12:56.886Z,93952.47
2023-05-18T18:18:03.927Z,93954.94
2023-05-18T18:23:11.378Z,93959.75
2023-05-18T18:28:19.015Z,93968.47
2023-05-18T18:33:26.818Z,93967.45
2023-05-18T18:38:34.273Z,93973.80
2023-05-18T18:43:41.454Z,93979.72
2023-05-18T18:48:48.759Z,93985.31
2023-05-18T18:53:56.499Z,93984.77
2023-05-18T18:59:03.445Z,93999.94
2023-05-18T19:04:10.715Z,94009.50
2023-05-18T19:09:18.357Z,94013.24
2023-05-18T19:14:25.297Z,94024.41
2023-05-18T19:19:32.949Z,94031.02
2023-05-18T19:24:40.311Z,94034.73
2023-05-18T19:29:47.200Z,94040.84
2023-05-18T19:34:54.256Z,94049.34
2023-05-18T19:40:01.378Z,93921.01
2023-05-18T19:45:09.293Z,94054.39
2023-05-18T19:50:16.339Z,93889.64
2023-05-18T19:55:27.547Z,94067.95
2023-05-18T20:00:36.170Z,94077.76
2023-05-18T20:05:44.375Z,94073.74
2023-05-18T20:10:52.851Z,94086.70
2023-05-18T20:16:06.817Z,94085.19
2023-05-18T20:21:13.999Z,94089.44
2023-05-18T20:26:22.784Z,94089.70
2023-05-18T20:31:31.201Z,94093.09
2023-05-18T20:36:38.585Z,94094.94
2023-05-18T20:41:45.580Z,94092.32
2023-05-18T20:46:53.622Z,94090.11
2023-05-18T20:52:00.506Z,94093.35
2023-05-18T20:57:08.028Z,93928.16
2023-05-18T21:02:14.960Z,94098.64
2023-05-18T21:07:22.815Z,94096.20
2023-05-18T21:12:30.022Z,94096.27
2023-05-18T21:17:37.098Z,94091.21
2023-05-18T21:22:44.324Z,94096.73
2023-05-18T21:27:51.195Z,94098.80
2023-05-18T21:32:58.238Z,94102.31
2023-05-18T21:38:05.328Z,94105.02
2023-05-18T21:43:13.133Z,94095.63
2023-05-18T21:48:20.254Z,94093.81
2023-05-18T21:53:27.795Z,94092.17
2023-05-18T21:58:35.184Z,94086.91
2023-05-18T22:03:42.080Z,94086.34
2023-05-18T22:08:49.875Z,94085.26
2023-05-18T22:13:56.959Z,94086.00
2023-05-18T22:19:04.194Z,94078.05
2023-05-18T22:24:11.422Z,94074.60
2023-05-18T22:29:18.362Z,94071.68
2023-05-18T22:34:26.000Z,94078.89
2023-05-18T22:39:33.668Z,94079.91
2023-05-18T22:44:40.779Z,94084.67
2023-05-18T22:49:48.255Z,94085.73
2023-05-18T22:54:55.646Z,94090.23
2023-05-18T23:00:02.587Z,94086.45
2023-05-18T23:05:11.218Z,94078.72
2023-05-18T23:10:18.988Z,94073.84
2023-05-18T23:15:26.187Z,94067.67
2023-05-18T23:20:34.859Z,94073.27
2023-05-18T23:25:41.933Z,94068.75
2023-05-18T23:30:49.247Z,94078.24
2023-05-18T23:35:58.995Z,94076.44
2023-05-18T23:41:08.854Z,94069.64
2023-05-18T23:46:17.568Z,94066.06
2023-05-18T23:51:27.201Z,94065.55
2023-05-18T23:56:34.923Z,94057.68
